Time;durP1;ratioP1;P1;durP2;ratioP2;P2;SDS_P1;SDS_P2;PMS_P1;PMS_P2;Temp;Humidity;BMP_temperature;BMP_pressure;BME280_temperature;BME280_humidity;BME280_pressure;Samples;Min_cycle;Max_cycle;Signal;HPM_P1;HPM_P2
2021/04/01 00:01:21;;;;;;;46.80;23.92;;;;;;;2.73;66.01;101707.92;1758524;81;21142;-59
2021/04/01 00:03:55;;;;;;;78.22;31.97;;;;;;;2.71;66.09;101696.34;1757583;81;21724;-59
2021/04/01 00:06:28;;;;;;;61.27;27.97;;;;;;;2.65;66.06;101700.41;1758259;81;21212;-59
2021/04/01 00:09:01;;;;;;;70.52;29.95;;;;;;;2.59;66.10;101697.19;1758693;81;21190;-58
2021/04/01 00:11:36;;;;;;;142.55;55.08;;;;;;;2.56;66.15;101693.41;1758424;81;21279;-59
2021/04/01 00:14:09;;;;;;;57.65;26.75;;;;;;;2.52;66.19;101693.97;1757766;81;21769;-59
2021/04/01 00:16:42;;;;;;;55.17;26.60;;;;;;;2.47;66.22;101692.42;1758468;81;21236;-60
2021/04/01 00:19:15;;;;;;;71.27;34.73;;;;;;;2.43;66.29;101687.81;1758520;81;21836;-59
2021/04/01 00:21:49;;;;;;;70.15;31.17;;;;;;;2.41;66.40;101691.34;1758047;81;21273;-59
2021/04/01 00:24:22;;;;;;;101.20;46.58;;;;;;;2.39;66.57;101686.20;1758090;81;21788;-59
2021/04/01 00:26:55;;;;;;;74.72;32.75;;;;;;;2.39;66.77;101684.91;1758055;81;21272;-59
2021/04/01 00:29:29;;;;;;;78.25;31.75;;;;;;;2.39;66.83;101682.33;1758624;81;21783;-59
2021/04/01 00:32:03;;;;;;;49.93;22.40;;;;;;;2.39;66.87;101683.63;1758374;81;21307;-61
2021/04/01 00:34:36;;;;;;;;;;;;;;;2.37;67.00;101680.69;1760548;81;21269;-59
2021/04/01 00:37:08;;;;;;;39.42;21.85;;;;;;;2.35;67.12;101679.89;1757854;81;20167;-59
2021/04/01 00:39:42;;;;;;;32.53;18.67;;;;;;;2.30;67.25;101683.07;1758508;81;21118;-59
2021/04/01 00:42:15;;;;;;;43.42;20.70;;;;;;;2.28;67.43;101686.16;1758099;81;21209;-59
2021/04/01 00:44:49;;;;;;;46.13;23.50;;;;;;;2.26;67.58;101682.34;1758229;81;21256;-59
2021/04/01 00:47:22;;;;;;;40.23;19.92;;;;;;;2.26;67.82;101680.20;1757920;81;21277;-59
2021/04/01 00:49:55;;;;;;;42.33;21.73;;;;;;;2.26;67.94;101684.08;1758670;81;21186;-60
2021/04/01 00:52:29;;;;;;;45.00;22.07;;;;;;;2.27;68.03;101674.97;1761132;81;21168;-59
2021/04/01 00:55:02;;;;;;;44.13;22.10;;;;;;;2.29;68.17;101678.38;1761553;80;21178;-59
2021/04/01 00:57:36;;;;;;;;;;;;;;;2.31;68.27;101676.58;1764006;81;21708;-60
2021/04/01 01:00:11;;;;;;;43.15;20.77;;;;;;;2.31;68.28;101671.85;1761537;81;20579;-58
2021/04/01 01:02:44;;;;;;;43.05;21.33;;;;;;;2.30;68.42;101677.46;1761534;81;21787;-59
2021/04/01 01:05:19;;;;;;;49.05;20.90;;;;;;;2.33;68.37;101672.64;1761264;81;21130;-59
2021/04/01 01:07:52;;;;;;;39.08;22.22;;;;;;;2.33;68.29;101672.20;1760980;81;21279;-60
2021/04/01 01:10:30;;;;;;;32.65;20.80;;;;;;;2.34;68.20;101663.53;1761288;81;21269;-59
2021/04/01 01:13:04;;;;;;;55.05;25.02;;;;;;;2.34;67.96;101665.30;1760810;81;21153;-59
2021/04/01 01:15:38;;;;;;;36.83;19.62;;;;;;;2.28;67.71;101663.75;1761163;81;21328;-59
2021/04/01 01:18:10;;;;;;;37.58;19.57;;;;;;;2.19;67.70;101661.91;1761163;81;21914;-59
2021/04/01 01:20:45;;;;;;;28.25;15.13;;;;;;;2.13;67.65;101659.50;1761840;81;21670;-59
2021/04/01 01:23:19;;;;;;;41.02;21.07;;;;;;;2.05;67.70;101663.17;1760839;81;21708;-60
2021/04/01 01:25:57;;;;;;;56.15;29.42;;;;;;;2.01;67.82;101662.03;1761031;81;21775;-61
2021/04/01 01:28:30;;;;;;;48.10;22.62;;;;;;;1.98;67.87;101654.41;1760899;81;21145;-60
2021/04/01 01:31:03;;;;;;;59.77;30.08;;;;;;;1.95;68.00;101650.17;1740625;81;21764;-59
2021/04/01 01:33:44;;;;;;;68.20;30.70;;;;;;;1.94;68.09;101651.05;1761352;81;21842;-59
2021/04/01 01:36:17;;;;;;;92.05;44.98;;;;;;;1.94;68.20;101647.63;1761067;81;21276;-59
2021/04/01 01:38:51;;;;;;;136.45;61.60;;;;;;;1.92;68.21;101643.80;1760983;81;21688;-60
2021/04/01 01:41:24;;;;;;;73.20;33.38;;;;;;;1.90;68.21;101640.88;1761731;81;21135;-59
2021/04/01 01:43:58;;;;;;;52.77;22.27;;;;;;;1.89;68.21;101640.46;1760871;81;21209;-60
2021/04/01 01:46:30;;;;;;;;;;;;;;;1.87;68.22;101639.66;1763393;81;21150;-59
2021/04/01 01:49:03;;;;;;;48.90;23.20;;;;;;;1.87;68.26;101638.38;1760294;81;20238;-59
2021/04/01 01:51:36;;;;;;;33.60;18.32;;;;;;;1.87;68.24;101639.23;1761748;81;21716;-60
2021/04/01 01:54:09;;;;;;;38.43;19.93;;;;;;;1.87;68.20;101640.52;1760986;81;21672;-60
2021/04/01 01:56:43;;;;;;;33.73;16.95;;;;;;;1.86;68.16;101641.40;1760950;81;21459;-60
2021/04/01 01:59:16;;;;;;;29.05;16.30;;;;;;;1.83;68.07;101638.08;1765082;81;21268;-58
2021/04/01 02:01:54;;;;;;;22.58;12.75;;;;;;;1.74;68.03;101640.52;1766276;81;21791;-60
2021/04/01 02:04:27;;;;;;;32.53;16.90;;;;;;;1.67;68.20;101636.87;1765885;81;21870;-60
2021/04/01 02:07:01;;;;;;;27.55;15.20;;;;;;;1.61;68.49;101635.31;1765665;81;21656;-60
2021/04/01 02:09:34;;;;;;;30.70;14.95;;;;;;;1.60;68.75;101637.47;1766117;81;21284;-61
2021/04/01 02:12:09;;;;;;;22.77;12.50;;;;;;;1.63;68.85;101632.67;1766839;81;21874;-60
2021/04/01 02:14:43;;;;;;;110.50;37.63;;;;;;;1.63;68.84;101632.23;1765749;81;21153;-60
2021/04/01 02:17:21;;;;;;;49.00;23.57;;;;;;;1.61;68.79;101637.03;1765977;81;21260;-60
2021/04/01 02:19:59;;;;;;;35.48;17.02;;;;;;;1.60;68.79;101634.89;1765791;81;21216;-61
2021/04/01 02:22:33;;;;;;;34.65;17.62;;;;;;;1.60;68.87;101639.23;1766818;81;21245;-60
2021/04/01 02:25:07;;;;;;;37.27;19.00;;;;;;;1.58;68.81;101637.12;1766144;81;21148;-59
2021/04/01 02:27:42;;;;;;;86.78;32.93;;;;;;;1.58;68.87;101637.97;1765633;81;21138;-59
2021/04/01 02:30:16;;;;;;;161.25;65.97;;;;;;;1.56;68.85;101634.59;1765614;81;21302;-59
2021/04/01 02:32:49;;;;;;;63.30;25.60;;;;;;;1.55;68.80;101629.48;1764597;81;22102;-59
2021/04/01 02:35:22;;;;;;;66.85;27.07;;;;;;;1.52;68.76;101624.41;1763713;81;21200;-59
2021/04/01 02:37:55;;;;;;;57.35;24.85;;;;;;;1.51;68.72;101629.16;1762540;81;21315;-59
2021/04/01 02:40:28;;;;;;;31.15;16.10;;;;;;;1.50;68.84;101625.77;1761342;81;21208;-59
2021/04/01 02:43:01;;;;;;;52.47;24.87;;;;;;;1.49;68.86;101624.50;1763592;81;21248;-59
2021/04/01 02:45:34;;;;;;;55.50;25.95;;;;;;;1.48;68.88;101624.11;1762467;81;21272;-59
2021/04/01 02:48:09;;;;;;;54.40;24.65;;;;;;;1.45;68.84;101626.78;1763136;81;21756;-57
2021/04/01 02:50:43;;;;;;;41.65;18.80;;;;;;;1.40;68.75;101622.19;1762283;81;21192;-57
2021/04/01 02:53:16;;;;;;;41.70;17.77;;;;;;;1.38;68.69;101625.27;1762512;81;22147;-57
2021/04/01 02:55:49;;;;;;;33.07;17.13;;;;;;;1.34;68.49;101624.06;1762648;81;21287;-56
2021/04/01 02:58:23;;;;;;;41.50;18.73;;;;;;;1.29;68.33;101620.77;1762216;80;21315;-57
2021/04/01 03:00:57;;;;;;;49.58;20.75;;;;;;;1.25;68.36;101623.04;1760285;80;21334;-57
2021/04/01 03:03:33;;;;;;;46.90;20.92;;;;;;;1.25;68.37;101619.17;1759402;81;21337;-56
2021/04/01 03:06:05;;;;;;;42.90;19.65;;;;;;;1.24;68.35;101617.94;1756265;81;21259;-57
2021/04/01 03:08:38;;;;;;;36.03;15.25;;;;;;;1.23;68.38;101615.80;1757096;81;21287;-57
2021/04/01 03:11:11;;;;;;;23.87;12.15;;;;;;;1.21;68.29;101612.86;1759020;81;21891;-56
2021/04/01 03:13:44;;;;;;;32.28;16.95;;;;;;;1.21;68.28;101612.86;1758393;81;21464;-57
2021/04/01 03:16:17;;;;;;;32.88;16.97;;;;;;;1.17;68.52;101610.80;1758278;81;22000;-57
2021/04/01 03:18:52;;;;;;;31.68;15.25;;;;;;;1.23;68.75;101620.11;1758466;81;21280;-57
2021/04/01 03:21:26;;;;;;;33.18;15.63;;;;;;;1.31;68.92;101618.16;1758157;81;21966;-56
2021/04/01 03:23:59;;;;;;;44.55;18.05;;;;;;;1.43;69.08;101620.82;1760780;81;21249;-57
2021/04/01 03:27:08;;;;;;;36.83;16.45;;;;;;;1.57;68.98;101617.38;1758522;81;21275;-57
2021/04/01 03:29:42;;;;;;;37.60;14.80;;;;;;;1.70;68.80;101619.53;1759025;81;21793;-57
2021/04/01 03:32:15;;;;;;;;;;;;;;;1.86;68.57;101614.75;1762858;81;22065;-59
2021/04/01 03:34:48;;;;;;;25.68;13.60;;;;;;;1.97;68.40;101610.09;1759167;81;20619;-58
2021/04/01 03:37:21;;;;;;;32.50;14.25;;;;;;;2.02;68.37;101614.22;1758258;81;21323;-60
2021/04/01 03:39:55;;;;;;;26.00;13.38;;;;;;;2.19;68.24;101606.36;1760194;81;21134;-59
2021/04/01 03:42:28;;;;;;;27.67;13.98;;;;;;;2.45;67.88;101602.02;1760174;81;21811;-58
2021/04/01 03:45:01;;;;;;;21.52;13.10;;;;;;;2.71;67.34;101600.67;1759660;81;21677;-60
2021/04/01 03:47:34;;;;;;;;;;;;;;;3.01;66.78;101600.48;1762379;81;21768;-59
2021/04/01 03:50:09;;;;;;;38.25;18.27;;;;;;;3.25;66.14;101600.85;1757397;81;20202;-60
2021/04/01 03:52:42;;;;;;;25.57;14.73;;;;;;;3.44;65.70;101599.73;1759248;81;21173;-60
2021/04/01 03:55:30;;;;;;;28.87;15.78;;;;;;;3.79;65.18;101597.47;1758847;81;21252;-59
2021/04/01 03:58:01;;;;;;;26.10;14.95;;;;;;;4.14;64.45;101597.77;1758250;81;21153;-60
2021/04/01 04:00:32;;;;;;;44.67;24.75;;;;;;;4.48;63.68;101601.95;1744230;81;21241;-59
2021/04/01 04:11:32;;;;;;;24.20;15.25;;;;;;;5.91;60.15;101586.77;1746906;81;21978;-59
2021/04/01 04:16:37;;;;;;;28.25;14.85;;;;;;;7.35;56.54;101578.84;1761646;81;21334;-60
2021/04/01 04:19:10;;;;;;;25.80;14.30;;;;;;;7.94;54.78;101580.72;1761911;81;21224;-60
2021/04/01 04:21:44;;;;;;;27.58;14.50;;;;;;;8.50;53.11;101581.39;1762153;81;21634;-59
2021/04/01 04:24:17;;;;;;;22.20;13.60;;;;;;;8.99;51.63;101581.88;1762031;81;21149;-64
2021/04/01 04:26:51;;;;;;;26.87;14.40;;;;;;;9.47;50.32;101577.08;1764202;81;21857;-62
2021/04/01 04:29:24;;;;;;;26.62;13.88;;;;;;;9.96;48.87;101574.75;1750143;81;21985;-60
2021/04/01 04:31:57;;;;;;;24.43;14.15;;;;;;;10.35;47.58;101570.47;1747595;81;21587;-61
2021/04/01 04:34:30;;;;;;;25.75;14.35;;;;;;;10.73;46.74;101569.56;1762550;81;21295;-62
2021/04/01 04:37:03;;;;;;;;;;;;;;;11.14;45.90;101568.00;1747859;81;22082;-60
2021/04/01 04:39:39;;;;;;;30.08;14.50;;;;;;;11.60;45.06;101562.09;1743372;81;20292;-60
2021/04/01 04:42:13;;;;;;;42.08;15.68;;;;;;;12.02;44.06;101562.91;1753783;81;21195;-59
2021/04/01 04:44:46;;;;;;;27.97;14.40;;;;;;;12.39;43.29;101563.17;1751588;81;21243;-60
2021/04/01 04:47:19;;;;;;;29.82;15.43;;;;;;;12.83;42.62;101557.12;1757997;81;21235;-59
2021/04/01 04:54:03;;;;;;;26.87;13.95;;;;;;;13.75;40.83;101555.47;1762326;81;21235;-58
2021/04/01 05:05:57;;;;;;;23.27;14.03;;;;;;;15.95;36.96;101553.91;1757530;81;21204;-64
2021/04/01 05:08:30;;;;;;;22.90;13.13;;;;;;;16.40;36.24;101548.37;1756005;81;21323;-64
2021/04/01 05:11:04;;;;;;;20.72;11.97;;;;;;;16.83;35.23;101542.08;1756814;81;21338;-63
2021/04/01 05:13:38;;;;;;;31.77;12.85;;;;;;;17.24;34.49;101539.42;1755365;81;21311;-65
2021/04/01 05:16:11;;;;;;;20.50;12.88;;;;;;;17.67;33.72;101537.45;1756974;81;22099;-60
2021/04/01 05:18:47;;;;;;;20.08;12.07;;;;;;;17.99;33.20;101539.55;1755690;81;21299;-61
2021/04/01 05:21:23;;;;;;;14.90;10.82;;;;;;;18.33;32.84;101538.33;1757030;81;21181;-63
2021/04/01 05:23:58;;;;;;;19.00;11.53;;;;;;;18.79;32.08;101529.52;1755638;81;21942;-57
2021/04/01 05:29:12;;;;;;;15.85;11.43;;;;;;;19.54;30.78;101530.48;1757667;81;21377;-57
2021/04/01 05:31:42;;;;;;;18.75;11.18;;;;;;;19.89;30.21;101528.05;1756976;81;21177;-56
2021/04/01 05:34:15;;;;;;;20.30;10.28;;;;;;;20.21;29.67;101527.19;1755681;81;21413;-56
2021/04/01 05:36:52;;;;;;;14.20;9.68;;;;;;;20.67;29.25;101521.99;1757011;81;21292;-63
2021/04/01 05:39:37;;;;;;;32.42;11.90;;;;;;;21.26;28.48;101516.61;1755635;81;21208;-63
2021/04/01 05:42:09;;;;;;;19.07;11.65;;;;;;;21.78;27.89;101511.96;1757014;81;21351;-63
2021/04/01 05:48:54;;;;;;;14.53;8.68;;;;;;;22.50;26.91;101504.63;1755944;81;20388;-61
2021/04/01 05:58:12;;;;;;;11.63;8.00;;;;;;;23.56;25.74;101496.12;1759480;80;21189;-58
2021/04/01 06:03:45;;;;;;;20.20;9.60;;;;;;;24.22;24.44;101490.35;1756286;81;21248;-58
2021/04/01 06:06:28;;;;;;;15.93;8.38;;;;;;;24.42;24.65;101496.68;1754620;81;22122;-60
2021/04/01 06:08:57;;;;;;;13.30;10.13;;;;;;;24.70;24.11;101480.55;1752939;81;21276;-61
2021/04/01 06:11:32;;;;;;;14.45;8.70;;;;;;;24.72;24.03;101481.18;1752390;81;22130;-61
2021/04/01 06:18:18;;;;;;;12.50;7.53;;;;;;;25.35;23.45;101477.33;1753573;81;21411;-59
2021/04/01 06:20:52;;;;;;;19.48;8.70;;;;;;;25.95;22.88;101465.66;1753086;81;21182;-62
2021/04/01 06:27:49;;;;;;;17.40;7.28;;;;;;;26.26;22.52;101472.57;1753905;81;21424;-61
2021/04/01 06:30:27;;;;;;;15.43;8.95;;;;;;;26.48;22.22;101466.44;1752756;81;21211;-60
2021/04/01 06:33:06;;;;;;;21.62;8.35;;;;;;;26.69;22.00;101461.61;1753907;81;21279;-59
2021/04/01 06:35:51;;;;;;;11.70;6.65;;;;;;;26.82;21.80;101458.06;1753905;81;21176;-59
2021/04/01 06:38:30;;;;;;;20.32;7.95;;;;;;;27.00;21.68;101458.20;1753748;81;21184;-57
2021/04/01 06:41:08;;;;;;;20.15;6.95;;;;;;;27.32;21.48;101451.00;1753133;81;21206;-61
2021/04/01 06:44:01;;;;;;;21.52;6.72;;;;;;;27.55;21.21;101453.95;1753590;81;21205;-58
2021/04/01 06:46:46;;;;;;;22.77;7.80;;;;;;;27.78;20.92;101456.05;1753764;81;21181;-58
2021/04/01 06:52:02;;;;;;;15.28;6.25;;;;;;;28.04;20.68;101447.77;1754094;81;22134;-60
2021/04/01 06:54:43;;;;;;;15.45;5.78;;;;;;;28.34;20.36;101452.76;1753563;81;21318;-59
2021/04/01 06:57:36;;;;;;;21.75;10.50;;;;;;;28.72;20.16;101444.98;1753787;81;21177;-63
2021/04/01 07:03:02;;;;;;;52.65;7.53;;;;;;;29.44;19.38;101444.01;1752055;81;21291;-63
2021/04/01 07:06:05;;;;;;;30.68;13.60;;;;;;;29.52;19.11;101436.39;1752459;81;21315;-61
2021/04/01 07:08:46;;;;;;;22.87;9.28;;;;;;;29.78;18.97;101434.64;1751856;81;21209;-58
2021/04/01 07:11:38;;;;;;;20.00;7.60;;;;;;;30.13;18.43;101437.35;1751890;81;21181;-62
2021/04/01 07:14:23;;;;;;;24.65;9.20;;;;;;;30.20;18.55;101431.81;1753501;81;21307;-57
2021/04/01 07:17:08;;;;;;;14.15;5.80;;;;;;;30.45;18.35;101427.01;1753769;81;21197;-59
2021/04/01 07:32:34;;;;;;;13.88;5.28;;;;;;;30.62;17.49;101399.50;1753182;81;21312;-59
2021/04/01 07:46:28;;;;;;;18.90;4.92;;;;;;;29.72;17.78;101394.23;1698677;81;21196;-56
2021/04/01 07:48:56;;;;;;;18.05;5.30;;;;;;;29.23;18.13;101392.23;1752760;81;21280;-67
2021/04/01 07:51:58;;;;;;;20.50;4.87;;;;;;;28.91;18.52;101387.30;1752292;81;22062;-62
2021/04/01 07:54:31;;;;;;;21.40;4.62;;;;;;;28.77;18.53;101379.10;1731460;81;22149;-58
2021/04/01 08:00:24;;;;;;;25.62;6.50;;;;;;;29.22;18.54;101373.07;1753340;81;21291;-58
2021/04/01 08:05:40;;;;;;;44.33;23.73;;;;;;;28.46;18.63;101362.59;1753241;81;21588;-68
2021/04/01 08:08:14;;;;;;;24.57;9.00;;;;;;;28.16;19.02;101365.77;1752316;81;21456;-64
2021/04/01 08:10:47;;;;;;;;;;;;;;;28.04;19.20;101358.41;1755427;81;21232;-60
2021/04/01 08:13:26;;;;;;;16.65;5.72;;;;;;;28.28;19.16;101347.80;1757650;81;20265;-70
2021/04/01 08:16:04;;;;;;;18.23;4.40;;;;;;;28.49;19.02;101341.39;1755406;81;21319;-65
2021/04/01 08:18:41;;;;;;;10.40;3.87;;;;;;;28.90;18.50;101352.77;1754222;81;21226;-64
2021/04/01 08:21:14;;;;;;;14.93;5.15;;;;;;;28.73;18.27;101340.19;1752867;81;21556;-70
2021/04/01 08:23:58;;;;;;;8.18;3.80;;;;;;;28.40;18.50;101350.84;1750721;81;21984;-63
2021/04/01 08:33:25;;;;;;;20.95;5.87;;;;;;;27.70;19.02;101332.56;1749781;81;21239;-68
2021/04/01 08:35:58;;;;;;;17.05;6.05;;;;;;;27.63;18.99;101333.98;1750215;81;21196;-70
2021/04/01 08:38:33;;;;;;;22.85;4.80;;;;;;;27.33;19.46;101325.73;1750780;81;21263;-67
2021/04/01 08:41:24;;;;;;;14.95;4.05;;;;;;;27.20;19.22;101319.64;1750531;81;21394;-67
2021/04/01 08:44:36;;;;;;;19.62;4.95;;;;;;;27.05;19.59;101317.27;1745362;81;21617;-63
2021/04/01 08:47:33;;;;;;;14.40;5.62;;;;;;;26.88;19.94;101307.25;1749561;81;22104;-66
2021/04/01 08:50:35;;;;;;;15.43;6.47;;;;;;;26.90;19.69;101313.23;1727485;82;21334;-66
2021/04/01 08:53:35;;;;;;;12.00;4.08;;;;;;;26.51;19.82;101303.00;1735080;82;22039;-69
2021/04/01 09:00:19;;;;;;;15.80;6.70;;;;;;;25.72;20.55;101290.91;1753743;81;21515;-65
2021/04/01 09:02:55;;;;;;;17.55;4.22;;;;;;;25.59;20.59;101281.02;1752955;81;21185;-65
2021/04/01 09:05:28;;;;;;;15.95;3.60;;;;;;;25.75;20.36;101274.37;1753493;81;21311;-68
2021/04/01 09:08:04;;;;;;;15.85;4.08;;;;;;;25.82;20.37;101275.17;1754106;81;21239;-69
2021/04/01 09:10:39;;;;;;;18.92;5.22;;;;;;;25.82;19.44;101274.66;1755452;81;21256;-67
2021/04/01 09:13:21;;;;;;;20.92;4.35;;;;;;;25.48;19.50;101264.75;1729548;81;21362;-64
2021/04/01 09:16:05;;;;;;;18.10;4.10;;;;;;;25.09;19.84;101265.57;1753699;81;21180;-69
2021/04/01 09:18:34;;;;;;;13.45;3.83;;;;;;;24.89;19.87;101247.31;1723809;83;21354;-69
2021/04/01 09:21:08;;;;;;;21.00;5.25;;;;;;;24.63;20.21;101249.42;1703514;83;22024;-66
2021/04/01 09:23:44;;;;;;;14.68;3.85;;;;;;;24.56;20.38;101249.42;1723215;83;22141;-61
2021/04/01 09:26:30;;;;;;;17.35;4.17;;;;;;;24.40;19.88;101243.62;1724096;83;21330;-63
2021/04/01 09:37:29;;;;;;;23.38;6.10;;;;;;;23.42;21.81;101225.25;1736139;82;21190;-62
2021/04/01 09:40:13;;;;;;;33.73;9.83;;;;;;;22.92;21.61;101210.27;1738376;82;21301;-63
2021/04/01 09:42:49;;;;;;;24.15;6.15;;;;;;;22.69;22.02;101218.48;1735948;82;21262;-64
2021/04/01 09:45:30;;;;;;;21.25;6.12;;;;;;;22.34;22.31;101211.33;1723264;81;21174;-63
2021/04/01 09:52:15;;;;;;;28.55;5.67;;;;;;;21.55;22.22;101210.00;1723201;82;21176;-62
2021/04/01 09:54:56;;;;;;;34.38;8.08;;;;;;;20.73;23.97;101209.94;1722492;83;21231;-61
2021/04/01 09:57:48;;;;;;;44.03;9.70;;;;;;;20.18;24.97;101202.14;1722843;83;21323;-61
2021/04/01 10:04:31;;;;;;;36.10;7.37;;;;;;;19.87;25.90;101192.02;1688021;85;21456;-59
2021/04/01 10:07:15;;;;;;;26.93;5.00;;;;;;;19.88;25.62;101191.02;1725629;83;21319;-65
2021/04/01 10:09:52;;;;;;;28.27;4.85;;;;;;;19.75;24.82;101188.61;1723983;83;21233;-57
2021/04/01 10:12:41;;;;;;;27.40;5.97;;;;;;;19.43;25.13;101177.09;1728040;81;22085;-57
2021/04/01 10:15:15;;;;;;;29.23;4.70;;;;;;;19.18;25.56;101183.42;1730425;82;21249;-59
2021/04/01 10:17:49;;;;;;;43.42;5.10;;;;;;;18.86;26.06;101174.69;1731075;82;21492;-57
2021/04/01 10:20:23;;;;;;;28.77;4.80;;;;;;;18.53;26.49;101169.37;1735116;82;21284;-57
2021/04/01 10:23:08;;;;;;;32.00;4.33;;;;;;;18.34;27.45;101168.33;1710885;82;21279;-58
2021/04/01 10:25:57;;;;;;;23.80;4.12;;;;;;;18.25;27.35;101172.46;1731942;82;21366;-58
2021/04/01 10:28:32;;;;;;;;;;;;;;;18.08;27.16;101169.78;1733417;82;21331;-60
2021/04/01 10:30:59;;;;;;;24.50;4.47;;;;;;;17.80;27.05;101168.39;1730273;82;20425;-58
2021/04/01 10:33:38;;;;;;;24.82;4.97;;;;;;;17.63;27.52;101165.34;1730862;82;21892;-60
2021/04/01 10:36:12;;;;;;;21.50;4.05;;;;;;;17.46;28.06;101155.14;1733061;82;21239;-59
2021/04/01 10:38:46;;;;;;;21.07;4.22;;;;;;;17.35;28.27;101151.95;1710533;82;21330;-59
2021/04/01 10:41:19;;;;;;;22.13;4.85;;;;;;;17.24;28.94;101138.48;1732139;82;21538;-57
2021/04/01 10:43:54;;;;;;;16.42;4.05;;;;;;;17.24;28.94;101138.48;1730971;82;21245;-57
2021/04/01 10:46:27;;;;;;;19.73;4.25;;;;;;;17.18;28.47;101139.61;1731934;82;21196;-61
2021/04/01 10:49:02;;;;;;;29.02;4.55;;;;;;;17.07;28.65;101127.50;1730894;82;21378;-59
2021/04/01 10:51:35;;;;;;;36.68;10.20;;;;;;;17.11;28.51;101126.19;1732010;82;21311;-59
2021/04/01 10:54:13;;;;;;;24.95;5.85;;;;;;;17.17;28.63;101120.77;1705997;82;21378;-61
2021/04/01 10:56:52;;;;;;;20.60;4.22;;;;;;;17.17;28.14;101124.22;1731655;82;21173;-62
2021/04/01 10:59:49;;;;;;;44.83;11.60;;;;;;;17.18;28.13;101123.73;1730467;82;21499;-67
2021/04/01 11:02:24;;;;;;;27.85;8.50;;;;;;;17.17;28.14;101120.25;1695287;84;21245;-65
2021/04/01 11:05:14;;;;;;;23.80;5.97;;;;;;;17.12;28.14;101118.60;1734311;82;21365;-65
2021/04/01 11:07:55;;;;;;;26.45;6.83;;;;;;;17.04;28.24;101104.48;1732102;82;21633;-69
2021/04/01 11:10:30;;;;;;;16.80;5.28;;;;;;;16.97;28.33;101095.52;1732091;82;21295;-64
2021/04/01 11:13:21;;;;;;;30.30;6.20;;;;;;;16.95;28.19;101103.62;1731050;82;22185;-66
2021/04/01 11:15:55;;;;;;;18.90;7.00;;;;;;;16.89;28.18;101096.78;1727068;81;22191;-63
2021/04/01 11:18:29;;;;;;;22.90;4.20;;;;;;;16.81;28.37;101085.16;1724128;82;21351;-62
2021/04/01 11:21:06;;;;;;;27.65;7.25;;;;;;;16.80;28.64;101086.66;1731666;82;21303;-61
2021/04/01 11:23:38;;;;;;;45.33;16.12;;;;;;;16.80;28.37;101075.59;1731371;82;21307;-59
2021/04/01 11:26:12;;;;;;;50.73;18.47;;;;;;;16.81;28.45;101075.11;1695356;84;21443;-60
2021/04/01 11:28:53;;;;;;;;;;;;;;;16.81;28.36;101077.75;1734325;82;21504;-66
2021/04/01 11:31:27;;;;;;;45.10;15.60;;;;;;;16.76;28.51;101077.38;1730666;82;20279;-66
2021/04/01 11:34:01;;;;;;;21.02;6.35;;;;;;;16.65;28.86;101069.20;1699449;84;21315;-64
2021/04/01 11:36:40;;;;;;;57.48;18.52;;;;;;;16.62;28.81;101070.83;1731780;82;21184;-66
2021/04/01 11:39:36;;;;;;;55.20;16.52;;;;;;;16.58;28.63;101058.08;1695985;84;21331;-65
2021/04/01 11:42:05;;;;;;;40.60;9.65;;;;;;;16.53;28.64;101054.58;1730982;82;21263;-63
2021/04/01 11:44:40;;;;;;;11.40;4.05;;;;;;;16.48;28.71;101043.61;1731055;82;21315;-66
2021/04/01 11:47:16;;;;;;;14.75;4.65;;;;;;;16.50;28.56;101040.31;1731837;82;21303;-62
2021/04/01 11:49:51;;;;;;;13.68;3.50;;;;;;;16.52;28.94;101025.67;1732367;82;22170;-62
2021/04/01 11:52:24;;;;;;;21.00;4.53;;;;;;;16.56;29.16;101033.13;1731929;82;21598;-61
2021/04/01 11:54:58;;;;;;;17.27;4.03;;;;;;;16.62;28.93;101034.34;1731100;82;21366;-60
2021/04/01 11:57:32;;;;;;;21.73;4.42;;;;;;;16.67;28.91;101026.25;1709812;82;21534;-61
2021/04/01 12:00:17;;;;;;;27.93;9.00;;;;;;;16.70;28.84;101025.11;1731024;82;21327;-59
2021/04/01 12:02:55;;;;;;;26.73;8.13;;;;;;;16.73;28.49;101018.19;1736201;82;21347;-65
2021/04/01 12:05:28;;;;;;;17.65;4.40;;;;;;;16.72;28.37;101015.20;1730679;82;21618;-66
2021/04/01 12:08:03;;;;;;;14.05;3.60;;;;;;;16.68;28.52;101009.41;1731887;82;21358;-67
2021/04/01 12:10:38;;;;;;;22.50;4.72;;;;;;;16.71;28.02;101009.59;1730646;82;21370;-64
2021/04/01 12:13:12;;;;;;;34.35;9.70;;;;;;;16.71;28.22;101005.63;1731674;82;21374;-66
2021/04/01 12:15:46;;;;;;;25.00;7.75;;;;;;;16.70;28.20;101006.11;1730241;82;21224;-65
2021/04/01 12:18:20;;;;;;;22.75;7.10;;;;;;;16.69;27.91;101000.48;1732054;82;21300;-62
2021/04/01 12:20:53;;;;;;;36.13;11.12;;;;;;;16.65;27.81;100999.14;1730695;82;22128;-65
2021/04/01 12:23:29;;;;;;;20.70;4.78;;;;;;;16.62;27.60;100982.78;1731754;82;21413;-61
2021/04/01 12:26:05;;;;;;;31.75;10.30;;;;;;;16.57;28.00;100975.33;1730541;82;21331;-69
2021/04/01 12:28:38;;;;;;;28.60;8.53;;;;;;;16.56;27.89;100973.66;1696772;84;21335;-59
2021/04/01 12:31:15;;;;;;;18.65;4.72;;;;;;;16.57;28.18;100969.20;1734376;82;21263;-60
2021/04/01 12:33:53;;;;;;;9.68;3.12;;;;;;;16.59;27.82;100962.78;1731813;82;21420;-67
2021/04/01 12:36:32;;;;;;;63.42;19.48;;;;;;;16.58;27.53;100959.78;1730431;82;21217;-62
2021/04/01 12:39:09;;;;;;;16.10;4.50;;;;;;;16.56;27.46;100965.73;1696642;84;21456;-62
2021/04/01 12:41:46;;;;;;;26.50;8.88;;;;;;;16.54;27.00;100953.16;1731839;82;21330;-66
2021/04/01 12:44:19;;;;;;;42.03;13.45;;;;;;;16.53;27.35;100955.95;1731731;82;21311;-62
2021/04/01 12:46:53;;;;;;;19.20;5.85;;;;;;;16.50;27.39;100962.34;1676153;84;21225;-66
2021/04/01 12:49:33;;;;;;;16.80;5.12;;;;;;;16.47;27.56;100947.30;1731482;82;21185;-69
2021/04/01 12:52:09;;;;;;;17.82;6.83;;;;;;;16.44;27.56;100937.88;1731458;82;22164;-66
2021/04/01 12:54:44;;;;;;;15.85;4.35;;;;;;;16.44;27.77;100932.59;1731535;82;21311;-69
2021/04/01 12:57:24;;;;;;;17.48;5.58;;;;;;;16.46;27.85;100929.78;1732034;82;21315;-63
2021/04/01 12:59:57;;;;;;;19.62;4.30;;;;;;;16.49;27.70;100922.38;1729929;82;22019;-68
2021/04/01 13:02:33;;;;;;;26.50;8.48;;;;;;;16.53;27.53;100926.88;1730884;82;21362;-67
2021/04/01 13:05:10;;;;;;;13.98;5.30;;;;;;;16.52;27.68;100923.91;1731664;82;22139;-68
2021/04/01 13:11:01;;;;;;;28.65;9.38;;;;;;;16.59;27.76;100912.55;1731745;82;21180;-72
2021/04/01 13:13:08;;;;;;;15.30;6.33;;;;;;;16.62;27.87;100910.09;1725661;82;22115;-60
2021/04/01 13:15:42;;;;;;;16.57;5.70;;;;;;;16.65;27.96;100906.61;1731409;82;21582;-62
2021/04/01 13:18:15;;;;;;;23.98;8.28;;;;;;;16.65;27.70;100914.55;1730392;82;22235;-70
2021/04/01 13:20:49;;;;;;;10.15;3.77;;;;;;;16.61;27.87;100899.16;1730110;82;21213;-62
2021/04/01 13:23:41;;;;;;;14.40;3.43;;;;;;;16.58;27.96;100902.12;1689472;85;21224;-62
2021/04/01 13:26:12;;;;;;;10.55;3.08;;;;;;;16.58;28.15;100893.70;1671978;85;21378;-66
2021/04/01 13:28:45;;;;;;;19.15;4.53;;;;;;;16.59;27.97;100889.25;1671547;85;21566;-61
2021/04/01 13:31:33;;;;;;;20.68;4.58;;;;;;;16.58;28.07;100884.45;1694051;83;21475;-68
2021/04/01 13:34:06;;;;;;;11.30;3.60;;;;;;;16.58;27.92;100879.16;1706499;83;22087;-65
2021/04/01 13:36:45;;;;;;;17.23;4.60;;;;;;;16.56;27.51;100875.85;1707098;84;21220;-64
2021/04/01 13:39:16;;;;;;;8.58;3.30;;;;;;;16.53;27.75;100879.30;1706955;84;21400;-67
2021/04/01 13:44:52;;;;;;;11.40;3.85;;;;;;;16.48;27.43;100873.13;1707404;84;21197;-62
2021/04/01 13:47:12;;;;;;;15.98;6.22;;;;;;;16.40;27.44;100863.87;1705090;84;21510;-71
2021/04/01 13:49:46;;;;;;;16.37;6.03;;;;;;;16.36;27.48;100866.47;1739789;82;21314;-69
2021/04/01 13:55:14;;;;;;;16.52;5.87;;;;;;;16.27;27.66;100858.17;1740752;82;21347;-65
2021/04/01 14:10:33;;;;;;;17.52;5.67;;;;;;;16.16;28.47;100843.45;1688396;83;21287;-60
2021/04/01 14:13:08;;;;;;;18.55;4.80;;;;;;;16.11;28.40;100834.33;1710568;84;21289;-60
2021/04/01 14:19:51;;;;;;;18.55;7.87;;;;;;;16.05;28.81;100836.27;1715041;83;21187;-59